sensor_id;sensor_type;location;lat;lon;timestamp;pressure;altitude;pressure_sealevel;temperature;humidity
43312;BME280;30041;48.300;16.352;2022-11-20T00:00:45;99404.25;;;22.43;45.51
43312;BME280;30041;48.300;16.352;2022-11-20T00:03:11;99403.69;;;22.41;45.63
43312;BME280;30041;48.300;16.352;2022-11-20T00:05:36;99404.03;;;22.45;45.50
43312;BME280;30041;48.300;16.352;2022-11-20T00:08:01;99404.53;;;22.42;45.72
43312;BME280;30041;48.300;16.352;2022-11-20T00:10:27;99416.94;;;22.43;45.74
43312;BME280;30041;48.300;16.352;2022-11-20T00:12:52;99415.34;;;22.42;45.91
43312;BME280;30041;48.300;16.352;2022-11-20T00:15:18;99416.72;;;22.44;45.69
43312;BME280;30041;48.300;16.352;2022-11-20T00:17:43;99424.25;;;22.42;45.83
43312;BME280;30041;48.300;16.352;2022-11-20T00:20:09;99408.28;;;22.41;45.52
43312;BME280;30041;48.300;16.352;2022-11-20T00:22:35;99415.34;;;22.42;45.78
43312;BME280;30041;48.300;16.352;2022-11-20T00:25:00;99404.25;;;22.43;45.65
43312;BME280;30041;48.300;16.352;2022-11-20T00:27:26;99400.75;;;22.43;45.45
43312;BME280;30041;48.300;16.352;2022-11-20T00:29:51;99400.41;;;22.39;45.81
43312;BME280;30041;48.300;16.352;2022-11-20T00:32:17;99412.38;;;22.43;45.51
43312;BME280;30041;48.300;16.352;2022-11-20T00:34:42;99422.59;;;22.41;45.84
43312;BME280;30041;48.300;16.352;2022-11-20T00:37:07;99435.34;;;22.46;45.62
43312;BME280;30041;48.300;16.352;2022-11-20T00:39:33;99430.69;;;22.41;45.61
43312;BME280;30041;48.300;16.352;2022-11-20T00:41:58;99435.03;;;22.42;45.52
43312;BME280;30041;48.300;16.352;2022-11-20T00:44:24;99434.22;;;22.42;45.56
43312;BME280;30041;48.300;16.352;2022-11-20T00:46:49;99434.78;;;22.44;45.48
43312;BME280;30041;48.300;16.352;2022-11-20T00:49:15;99437.75;;;22.42;45.77
43312;BME280;30041;48.300;16.352;2022-11-20T00:51:40;99431.25;;;22.43;45.64
43312;BME280;30041;48.300;16.352;2022-11-20T00:54:05;99436.09;;;22.41;45.75
43312;BME280;30041;48.300;16.352;2022-11-20T00:56:31;99438.31;;;22.44;45.66
43312;BME280;30041;48.300;16.352;2022-11-20T00:58:59;99430.22;;;22.44;45.42
43312;BME280;30041;48.300;16.352;2022-11-20T01:01:26;99435.03;;;22.42;45.59
43312;BME280;30041;48.300;16.352;2022-11-20T01:03:53;99437.25;;;22.45;45.50
43312;BME280;30041;48.300;16.352;2022-11-20T01:06:20;99440.19;;;22.44;45.82
43312;BME280;30041;48.300;16.352;2022-11-20T01:08:47;99447.00;;;22.46;45.60
43312;BME280;30041;48.300;16.352;2022-11-20T01:11:18;99444.28;;;22.46;45.61
43312;BME280;30041;48.300;16.352;2022-11-20T01:13:46;99455.66;;;22.48;45.68
43312;BME280;30041;48.300;16.352;2022-11-20T01:16:17;99456.72;;;22.47;45.51
43312;BME280;30041;48.300;16.352;2022-11-20T01:18:45;99456.13;;;22.45;45.57
43312;BME280;30041;48.300;16.352;2022-11-20T01:21:17;99451.81;;;22.44;45.72
43312;BME280;30041;48.300;16.352;2022-11-20T01:23:43;99450.50;;;22.47;45.66
43312;BME280;30041;48.300;16.352;2022-11-20T01:26:15;99465.16;;;22.51;45.41
43312;BME280;30041;48.300;16.352;2022-11-20T01:28:41;99455.66;;;22.48;45.39
43312;BME280;30041;48.300;16.352;2022-11-20T01:31:16;99450.56;;;22.52;45.38
43312;BME280;30041;48.300;16.352;2022-11-20T01:33:43;99442.69;;;22.50;45.45
43312;BME280;30041;48.300;16.352;2022-11-20T01:36:09;99440.00;;;22.50;45.42
43312;BME280;30041;48.300;16.352;2022-11-20T01:38:36;99438.38;;;22.49;45.39
43312;BME280;30041;48.300;16.352;2022-11-20T01:41:02;99443.28;;;22.52;45.42
43312;BME280;30041;48.300;16.352;2022-11-20T01:43:27;99436.81;;;22.53;45.38
43312;BME280;30041;48.300;16.352;2022-11-20T01:46:03;99448.44;;;22.54;45.36
43312;BME280;30041;48.300;16.352;2022-11-20T01:48:33;99440.44;;;22.42;45.33
43312;BME280;30041;48.300;16.352;2022-11-20T01:51:01;99447.06;;;22.51;45.54
43312;BME280;30041;48.300;16.352;2022-11-20T01:53:32;99440.00;;;22.50;45.40
43312;BME280;30041;48.300;16.352;2022-11-20T01:56:00;99440.84;;;22.51;45.33
43312;BME280;30041;48.300;16.352;2022-11-20T01:58:31;99434.34;;;22.52;45.38
43312;BME280;30041;48.300;16.352;2022-11-20T02:00:58;99436.00;;;22.53;45.17
43312;BME280;30041;48.300;16.352;2022-11-20T02:03:24;99438.63;;;22.48;45.60
43312;BME280;30041;48.300;16.352;2022-11-20T02:08:46;99452.50;;;22.56;45.18
43312;BME280;30041;48.300;16.352;2022-11-20T02:11:12;99454.91;;;22.53;45.37
43312;BME280;30041;48.300;16.352;2022-11-20T02:13:37;99456.03;;;22.57;45.46
43312;BME280;30041;48.300;16.352;2022-11-20T02:16:03;99456.88;;;22.57;45.14
43312;BME280;30041;48.300;16.352;2022-11-20T02:18:29;99463.31;;;22.56;45.18
43312;BME280;30041;48.300;16.352;2022-11-20T02:21:27;99457.84;;;22.51;45.31
43312;BME280;30041;48.300;16.352;2022-11-20T02:26:54;99464.88;;;22.52;45.16
43312;BME280;30041;48.300;16.352;2022-11-20T02:29:26;99461.69;;;22.55;45.36
43312;BME280;30041;48.300;16.352;2022-11-20T02:31:54;99455.22;;;22.56;45.25
43312;BME280;30041;48.300;16.352;2022-11-20T02:34:21;99446.88;;;22.58;45.07
43312;BME280;30041;48.300;16.352;2022-11-20T02:36:46;99453.59;;;22.55;45.34
43312;BME280;30041;48.300;16.352;2022-11-20T02:39:15;99451.13;;;22.54;45.54
43312;BME280;30041;48.300;16.352;2022-11-20T02:41:40;99451.38;;;22.52;45.37
43312;BME280;30041;48.300;16.352;2022-11-20T02:44:06;99459.47;;;22.52;45.11
43312;BME280;30041;48.300;16.352;2022-11-20T02:46:32;99452.75;;;22.55;45.11
43312;BME280;30041;48.300;16.352;2022-11-20T02:48:57;99447.28;;;22.50;45.41
43312;BME280;30041;48.300;16.352;2022-11-20T02:51:23;99438.44;;;22.54;45.21
43312;BME280;30041;48.300;16.352;2022-11-20T02:53:48;99432.00;;;22.55;45.10
43312;BME280;30041;48.300;16.352;2022-11-20T02:56:13;99426.59;;;22.55;45.15
43312;BME280;30041;48.300;16.352;2022-11-20T02:58:39;99427.63;;;22.54;45.17
43312;BME280;30041;48.300;16.352;2022-11-20T03:01:04;99432.78;;;22.56;45.21
43312;BME280;30041;48.300;16.352;2022-11-20T03:03:30;99436.53;;;22.55;45.38
43312;BME280;30041;48.300;16.352;2022-11-20T03:05:55;99423.31;;;22.53;45.12
43312;BME280;30041;48.300;16.352;2022-11-20T03:08:20;99417.66;;;22.55;45.15
43312;BME280;30041;48.300;16.352;2022-11-20T03:10:47;99415.44;;;22.52;45.21
43312;BME280;30041;48.300;16.352;2022-11-20T03:13:13;99409.25;;;22.51;45.24
43312;BME280;30041;48.300;16.352;2022-11-20T03:15:38;99414.13;;;22.54;45.04
43312;BME280;30041;48.300;16.352;2022-11-20T03:18:04;99396.31;;;22.53;45.15
43312;BME280;30041;48.300;16.352;2022-11-20T03:20:29;99404.41;;;22.53;45.31
43312;BME280;30041;48.300;16.352;2022-11-20T03:22:55;99399.25;;;22.52;45.10
43312;BME280;30041;48.300;16.352;2022-11-20T03:25:21;99393.56;;;22.48;45.32
43312;BME280;30041;48.300;16.352;2022-11-20T03:27:46;99394.66;;;22.52;45.05
43312;BME280;30041;48.300;16.352;2022-11-20T03:30:12;99390.09;;;22.53;45.26
43312;BME280;30041;48.300;16.352;2022-11-20T03:32:38;99387.41;;;22.53;45.04
43312;BME280;30041;48.300;16.352;2022-11-20T03:35:04;99393.84;;;22.52;45.27
43312;BME280;30041;48.300;16.352;2022-11-20T03:37:29;99400.06;;;22.52;45.05
43312;BME280;30041;48.300;16.352;2022-11-20T03:39:55;99416.25;;;22.52;45.08
43312;BME280;30041;48.300;16.352;2022-11-20T03:42:20;99408.16;;;22.52;45.16
43312;BME280;30041;48.300;16.352;2022-11-20T03:44:45;99403.84;;;22.51;45.20
43312;BME280;30041;48.300;16.352;2022-11-20T03:47:11;99406.78;;;22.50;45.12
43312;BME280;30041;48.300;16.352;2022-11-20T03:49:36;99401.72;;;22.53;45.04
43312;BME280;30041;48.300;16.352;2022-11-20T03:52:01;99401.13;;;22.51;45.02
43312;BME280;30041;48.300;16.352;2022-11-20T03:54:27;99393.03;;;22.51;44.99
43312;BME280;30041;48.300;16.352;2022-11-20T03:56:52;99390.84;;;22.48;45.38
43312;BME280;30041;48.300;16.352;2022-11-20T03:59:17;99402.19;;;22.50;44.98
43312;BME280;30041;48.300;16.352;2022-11-20T04:01:43;99394.84;;;22.46;45.09
43312;BME280;30041;48.300;16.352;2022-11-20T04:04:08;99398.44;;;22.51;45.12
43312;BME280;30041;48.300;16.352;2022-11-20T04:06:36;99391.34;;;22.45;45.31
43312;BME280;30041;48.300;16.352;2022-11-20T04:09:03;99388.69;;;22.50;45.13
43312;BME280;30041;48.300;16.352;2022-11-20T04:11:31;99385.19;;;22.50;45.20
43312;BME280;30041;48.300;16.352;2022-11-20T04:13:59;99376.03;;;22.51;45.02
43312;BME280;30041;48.300;16.352;2022-11-20T04:16:26;99377.34;;;22.48;45.06
43312;BME280;30041;48.300;16.352;2022-11-20T04:18:58;99380.28;;;22.47;44.99
43312;BME280;30041;48.300;16.352;2022-11-20T04:21:25;99384.88;;;22.46;45.15
43312;BME280;30041;48.300;16.352;2022-11-20T04:23:52;99373.25;;;22.46;45.06
43312;BME280;30041;48.300;16.352;2022-11-20T04:26:17;99381.59;;;22.44;45.29
43312;BME280;30041;48.300;16.352;2022-11-20T04:28:43;99377.59;;;22.47;45.05
43312;BME280;30041;48.300;16.352;2022-11-20T04:31:14;99370.81;;;22.44;45.34
43312;BME280;30041;48.300;16.352;2022-11-20T04:33:40;99363.28;;;22.46;45.01
43312;BME280;30041;48.300;16.352;2022-11-20T04:36:11;99364.91;;;22.47;45.14
43312;BME280;30041;48.300;16.352;2022-11-20T04:38:37;99362.19;;;22.47;45.11
43312;BME280;30041;48.300;16.352;2022-11-20T04:41:05;99361.06;;;22.43;45.12
43312;BME280;30041;48.300;16.352;2022-11-20T04:43:32;99355.97;;;22.47;45.12
43312;BME280;30041;48.300;16.352;2022-11-20T04:45:59;99353.56;;;22.50;44.86
43312;BME280;30041;48.300;16.352;2022-11-20T04:48:26;99348.69;;;22.47;45.15
43312;BME280;30041;48.300;16.352;2022-11-20T04:50:52;99328.16;;;22.46;45.02
43312;BME280;30041;48.300;16.352;2022-11-20T04:55:43;99330.31;;;22.44;44.99
43312;BME280;30041;48.300;16.352;2022-11-20T04:58:09;99327.59;;;22.44;45.03
43312;BME280;30041;48.300;16.352;2022-11-20T05:00:35;99328.66;;;22.43;44.98
43312;BME280;30041;48.300;16.352;2022-11-20T05:03:00;99334.63;;;22.45;44.93
43312;BME280;30041;48.300;16.352;2022-11-20T05:05:26;99328.41;;;22.45;45.15
43312;BME280;30041;48.300;16.352;2022-11-20T05:07:52;99338.06;;;22.41;45.11
43312;BME280;30041;48.300;16.352;2022-11-20T05:10:17;99340.25;;;22.44;45.01
43312;BME280;30041;48.300;16.352;2022-11-20T05:12:43;99342.97;;;22.44;45.07
43312;BME280;30041;48.300;16.352;2022-11-20T05:15:09;99339.72;;;22.42;45.22
43312;BME280;30041;48.300;16.352;2022-11-20T05:17:34;99336.69;;;22.38;45.29
43312;BME280;30041;48.300;16.352;2022-11-20T05:20:00;99339.97;;;22.40;45.27
43312;BME280;30041;48.300;16.352;2022-11-20T05:22:25;99344.81;;;22.38;45.17
43312;BME280;30041;48.300;16.352;2022-11-20T05:24:50;99344.28;;;22.41;45.06
43312;BME280;30041;48.300;16.352;2022-11-20T05:27:16;99347.81;;;22.42;44.96
43312;BME280;30041;48.300;16.352;2022-11-20T05:29:41;99338.88;;;22.41;45.22
43312;BME280;30041;48.300;16.352;2022-11-20T05:32:06;99339.97;;;22.40;45.13
43312;BME280;30041;48.300;16.352;2022-11-20T05:34:32;99355.59;;;22.38;45.43
43312;BME280;30041;48.300;16.352;2022-11-20T05:36:57;99359.44;;;22.42;45.06
43312;BME280;30041;48.300;16.352;2022-11-20T05:39:23;99355.09;;;22.41;45.10
43312;BME280;30041;48.300;16.352;2022-11-20T05:41:48;99353.94;;;22.37;45.34
43312;BME280;30041;48.300;16.352;2022-11-20T05:44:14;99362.63;;;22.39;45.05
43312;BME280;30041;48.300;16.352;2022-11-20T05:46:39;99374.00;;;22.41;45.20
43312;BME280;30041;48.300;16.352;2022-11-20T05:49:05;99369.66;;;22.40;45.09
43312;BME280;30041;48.300;16.352;2022-11-20T05:51:30;99376.69;;;22.41;45.05
43312;BME280;30041;48.300;16.352;2022-11-20T05:53:57;99363.75;;;22.43;44.92
43312;BME280;30041;48.300;16.352;2022-11-20T05:56:22;99374.56;;;22.43;44.82
43312;BME280;30041;48.300;16.352;2022-11-20T05:58:48;99381.28;;;22.41;45.07
43312;BME280;30041;48.300;16.352;2022-11-20T06:01:18;99378.00;;;22.38;45.06
43312;BME280;30041;48.300;16.352;2022-11-20T06:03:44;99377.53;;;22.42;45.13
43312;BME280;30041;48.300;16.352;2022-11-20T06:06:09;99374.56;;;22.43;44.88
43312;BME280;30041;48.300;16.352;2022-11-20T06:08:35;99374.56;;;22.43;45.10
43312;BME280;30041;48.300;16.352;2022-11-20T06:11:05;99380.72;;;22.38;45.16
43312;BME280;30041;48.300;16.352;2022-11-20T06:13:31;99385.06;;;22.40;45.11
43312;BME280;30041;48.300;16.352;2022-11-20T06:15:56;99377.53;;;22.42;44.94
43312;BME280;30041;48.300;16.352;2022-11-20T06:18:22;99382.09;;;22.41;45.12
43312;BME280;30041;48.300;16.352;2022-11-20T06:20:48;99379.66;;;22.40;44.96
43312;BME280;30041;48.300;16.352;2022-11-20T06:23:13;99384.56;;;22.43;44.91
43312;BME280;30041;48.300;16.352;2022-11-20T06:25:40;99380.47;;;22.40;45.16
43312;BME280;30041;48.300;16.352;2022-11-20T06:28:06;99387.50;;;22.41;45.12
43312;BME280;30041;48.300;16.352;2022-11-20T06:30:32;99391.28;;;22.40;45.25
43312;BME280;30041;48.300;16.352;2022-11-20T06:32:58;99395.34;;;22.43;44.95
43312;BME280;30041;48.300;16.352;2022-11-20T06:35:23;99385.06;;;22.40;44.98
43312;BME280;30041;48.300;16.352;2022-11-20T06:37:48;99397.72;;;22.39;45.26
43312;BME280;30041;48.300;16.352;2022-11-20T06:40:14;99398.28;;;22.41;45.13
43312;BME280;30041;48.300;16.352;2022-11-20T06:42:39;99401.00;;;22.41;45.04
43312;BME280;30041;48.300;16.352;2022-11-20T06:45:05;99411.56;;;22.43;45.12
43312;BME280;30041;48.300;16.352;2022-11-20T06:47:31;99400.19;;;22.41;45.13
43312;BME280;30041;48.300;16.352;2022-11-20T06:49:56;99419.09;;;22.41;45.03
43312;BME280;30041;48.300;16.352;2022-11-20T06:52:22;99416.88;;;22.37;45.10
43312;BME280;30041;48.300;16.352;2022-11-20T06:54:47;99414.75;;;22.40;45.14
43312;BME280;30041;48.300;16.352;2022-11-20T06:57:13;99422.84;;;22.40;45.23
43312;BME280;30041;48.300;16.352;2022-11-20T06:59:38;99421.53;;;22.42;45.09
43312;BME280;30041;48.300;16.352;2022-11-20T07:02:04;99416.94;;;22.43;45.19
43312;BME280;30041;48.300;16.352;2022-11-20T07:04:29;99414.00;;;22.44;45.13
43312;BME280;30041;48.300;16.352;2022-11-20T07:06:55;99424.25;;;22.42;45.04
43312;BME280;30041;48.300;16.352;2022-11-20T07:09:20;99423.66;;;22.40;45.10
43312;BME280;30041;48.300;16.352;2022-11-20T07:11:46;99431.25;;;22.43;44.94
43312;BME280;30041;48.300;16.352;2022-11-20T07:14:11;99428.56;;;22.43;45.04
43312;BME280;30041;48.300;16.352;2022-11-20T07:16:37;99432.06;;;22.44;44.97
43312;BME280;30041;48.300;16.352;2022-11-20T07:19:02;99443.38;;;22.41;45.21
43312;BME280;30041;48.300;16.352;2022-11-20T07:21:28;99435.53;;;22.39;45.16
43312;BME280;30041;48.300;16.352;2022-11-20T07:23:53;99435.03;;;22.42;44.98
43312;BME280;30041;48.300;16.352;2022-11-20T07:26:19;99433.16;;;22.43;45.21
43312;BME280;30041;48.300;16.352;2022-11-20T07:28:44;99444.75;;;22.43;45.26
43312;BME280;30041;48.300;16.352;2022-11-20T07:31:10;99444.75;;;22.43;45.16
43312;BME280;30041;48.300;16.352;2022-11-20T07:33:35;99446.91;;;22.41;45.17
43312;BME280;30041;48.300;16.352;2022-11-20T07:36:01;99441.00;;;22.44;45.03
43312;BME280;30041;48.300;16.352;2022-11-20T07:38:27;99440.19;;;22.44;45.10
43312;BME280;30041;48.300;16.352;2022-11-20T07:40:58;99441.25;;;22.43;45.15
43312;BME280;30041;48.300;16.352;2022-11-20T07:43:24;99448.53;;;22.42;45.37
43312;BME280;30041;48.300;16.352;2022-11-20T07:45:50;99459.06;;;22.44;45.07
43312;BME280;30041;48.300;16.352;2022-11-20T07:48:16;99451.81;;;22.44;45.00
43312;BME280;30041;48.300;16.352;2022-11-20T07:50:41;99462.63;;;22.44;45.24
43312;BME280;30041;48.300;16.352;2022-11-20T07:53:06;99459.91;;;22.44;45.29
43312;BME280;30041;48.300;16.352;2022-11-20T07:55:32;99462.84;;;22.43;45.33
43312;BME280;30041;48.300;16.352;2022-11-20T07:57:58;99465.31;;;22.44;45.07
43312;BME280;30041;48.300;16.352;2022-11-20T08:00:25;99474.22;;;22.45;45.29
43312;BME280;30041;48.300;16.352;2022-11-20T08:02:51;99467.75;;;22.46;45.26
43312;BME280;30041;48.300;16.352;2022-11-20T08:05:16;99465.22;;;22.39;44.30
43312;BME280;30041;48.300;16.352;2022-11-20T08:07:43;99459.41;;;22.13;44.83
43312;BME280;30041;48.300;16.352;2022-11-20T08:10:11;99456.72;;;22.13;44.97
43312;BME280;30041;48.300;16.352;2022-11-20T08:12:44;99455.84;;;22.25;45.05
43312;BME280;30041;48.300;16.352;2022-11-20T08:15:10;99446.66;;;22.09;45.23
43312;BME280;30041;48.300;16.352;2022-11-20T08:17:35;99446.06;;;21.90;45.35
43312;BME280;30041;48.300;16.352;2022-11-20T08:20:01;99455.41;;;21.82;45.71
43312;BME280;30041;48.300;16.352;2022-11-20T08:22:27;99457.75;;;21.79;45.67
43312;BME280;30041;48.300;16.352;2022-11-20T08:24:53;99463.75;;;21.81;45.74
43312;BME280;30041;48.300;16.352;2022-11-20T08:27:18;99467.50;;;21.80;45.75
43312;BME280;30041;48.300;16.352;2022-11-20T08:29:43;99461.78;;;21.76;45.90
43312;BME280;30041;48.300;16.352;2022-11-20T08:32:09;99465.19;;;21.71;45.82
43312;BME280;30041;48.300;16.352;2022-11-20T08:34:34;99465.19;;;21.71;45.81
43312;BME280;30041;48.300;16.352;2022-11-20T08:37:02;99467.56;;;21.68;45.70
43312;BME280;30041;48.300;16.352;2022-11-20T08:39:27;99467.44;;;22.08;45.00
43312;BME280;30041;48.300;16.352;2022-11-20T08:41:53;99457.16;;;22.22;45.20
43312;BME280;30041;48.300;16.352;2022-11-20T08:44:18;99456.19;;;22.28;45.58
43312;BME280;30041;48.300;16.352;2022-11-20T08:46:44;99454.28;;;22.29;45.75
43312;BME280;30041;48.300;16.352;2022-11-20T08:49:11;99454.28;;;22.29;45.67
43312;BME280;30041;48.300;16.352;2022-11-20T08:51:37;99456.16;;;22.11;46.16
43312;BME280;30041;48.300;16.352;2022-11-20T08:54:03;99446.91;;;22.07;46.19
43312;BME280;30041;48.300;16.352;2022-11-20T08:56:30;99456.56;;;22.03;46.25
43312;BME280;30041;48.300;16.352;2022-11-20T08:58:58;99456.56;;;22.03;45.97
43312;BME280;30041;48.300;16.352;2022-11-20T09:01:24;99452.81;;;22.04;45.90
43312;BME280;30041;48.300;16.352;2022-11-20T09:03:49;99458.09;;;21.99;46.21
43312;BME280;30041;48.300;16.352;2022-11-20T09:06:15;99455.66;;;21.97;46.20
43312;BME280;30041;48.300;16.352;2022-11-20T09:08:41;99449.47;;;21.97;46.41
43312;BME280;30041;48.300;16.352;2022-11-20T09:11:06;99454.28;;;21.95;46.37
43312;BME280;30041;48.300;16.352;2022-11-20T09:13:33;99450.50;;;21.96;46.37
43312;BME280;30041;48.300;16.352;2022-11-20T09:16:01;99448.88;;;21.95;46.41
43312;BME280;30041;48.300;16.352;2022-11-20T09:18:28;99453.78;;;21.98;46.36
43312;BME280;30041;48.300;16.352;2022-11-20T09:20:58;99442.16;;;21.97;46.38
43312;BME280;30041;48.300;16.352;2022-11-20T09:23:23;99437.00;;;21.96;46.32
43312;BME280;30041;48.300;16.352;2022-11-20T09:25:49;99444.88;;;21.97;46.19
43312;BME280;30041;48.300;16.352;2022-11-20T09:28:14;99442.75;;;22.00;46.42
43312;BME280;30041;48.300;16.352;2022-11-20T09:30:40;99444.38;;;22.01;46.42
43312;BME280;30041;48.300;16.352;2022-11-20T09:33:05;99443.06;;;22.03;46.42
43312;BME280;30041;48.300;16.352;2022-11-20T09:35:32;99441.19;;;22.04;46.31
43312;BME280;30041;48.300;16.352;2022-11-20T09:37:57;99435.63;;;22.10;46.47
43312;BME280;30041;48.300;16.352;2022-11-20T09:40:26;99438.81;;;22.07;46.27
43312;BME280;30041;48.300;16.352;2022-11-20T09:45:24;99435.13;;;22.13;46.23
43312;BME280;30041;48.300;16.352;2022-11-20T09:47:57;99431.06;;;22.11;46.07
43312;BME280;30041;48.300;16.352;2022-11-20T09:53:13;99425.38;;;22.12;44.84
43312;BME280;30041;48.300;16.352;2022-11-20T09:55:41;99429.84;;;22.02;45.40
43312;BME280;30041;48.300;16.352;2022-11-20T09:58:15;99425.41;;;21.95;43.29
43312;BME280;30041;48.300;16.352;2022-11-20T10:00:41;99423.03;;;21.99;42.88
43312;BME280;30041;48.300;16.352;2022-11-20T10:03:24;99420.59;;;21.97;42.28
43312;BME280;30041;48.300;16.352;2022-11-20T10:05:57;99417.63;;;21.82;41.88
43312;BME280;30041;48.300;16.352;2022-11-20T10:08:42;99416.16;;;21.74;41.40
43312;BME280;30041;48.300;16.352;2022-11-20T10:31:08;99394.00;;;21.89;43.28
43312;BME280;30041;48.300;16.352;2022-11-20T10:33:39;99397.19;;;22.03;42.84
43312;BME280;30041;48.300;16.352;2022-11-20T10:41:26;99396.38;;;22.20;43.15
43312;BME280;30041;48.300;16.352;2022-11-20T10:44:10;99395.53;;;22.19;43.37
43312;BME280;30041;48.300;16.352;2022-11-20T10:46:43;99397.50;;;22.24;43.46
43312;BME280;30041;48.300;16.352;2022-11-20T10:49:17;99399.50;;;22.28;43.44
43312;BME280;30041;48.300;16.352;2022-11-20T10:59:55;99379.50;;;22.29;44.20
43312;BME280;30041;48.300;16.352;2022-11-20T11:02:31;99378.44;;;22.30;44.08
43312;BME280;30041;48.300;16.352;2022-11-20T11:04:58;99371.47;;;22.34;44.05
43312;BME280;30041;48.300;16.352;2022-11-20T11:07:30;99372.38;;;22.40;43.81
43312;BME280;30041;48.300;16.352;2022-11-20T11:09:56;99365.66;;;22.43;44.04
43312;BME280;30041;48.300;16.352;2022-11-20T11:12:25;99364.28;;;22.40;44.15
43312;BME280;30041;48.300;16.352;2022-11-20T11:14:53;99368.28;;;22.37;44.19
43312;BME280;30041;48.300;16.352;2022-11-20T11:17:28;99360.84;;;22.28;44.37
43312;BME280;30041;48.300;16.352;2022-11-20T11:20:04;99364.13;;;22.30;44.84
43312;BME280;30041;48.300;16.352;2022-11-20T11:22:32;99371.16;;;22.31;44.45
43312;BME280;30041;48.300;16.352;2022-11-20T11:24:58;99368.47;;;22.31;44.48
43312;BME280;30041;48.300;16.352;2022-11-20T11:27:24;99370.66;;;22.34;44.80
43312;BME280;30041;48.300;16.352;2022-11-20T11:29:49;99365.25;;;22.34;44.86
43312;BME280;30041;48.300;16.352;2022-11-20T11:32:19;99361.00;;;22.38;44.83
43312;BME280;30041;48.300;16.352;2022-11-20T11:34:58;99358.25;;;22.33;44.74
43312;BME280;30041;48.300;16.352;2022-11-20T11:37:28;99360.50;;;22.41;44.71
43312;BME280;30041;48.300;16.352;2022-11-20T11:39:58;99363.00;;;22.48;44.91
43312;BME280;30041;48.300;16.352;2022-11-20T11:42:23;99359.16;;;22.44;44.88
43312;BME280;30041;48.300;16.352;2022-11-20T11:44:57;99361.88;;;22.22;45.45
43312;BME280;30041;48.300;16.352;2022-11-20T11:55:04;99339.63;;;21.97;45.69
43312;BME280;30041;48.300;16.352;2022-11-20T12:00:12;99333.16;;;21.98;45.78
43312;BME280;30041;48.300;16.352;2022-11-20T12:11:05;99321.88;;;22.02;45.52
43312;BME280;30041;48.300;16.352;2022-11-20T12:13:46;99317.31;;;22.02;45.12
43312;BME280;30041;48.300;16.352;2022-11-20T12:16:14;99320.31;;;22.06;45.24
43312;BME280;30041;48.300;16.352;2022-11-20T12:18:42;99324.13;;;22.10;44.94
43312;BME280;30041;48.300;16.352;2022-11-20T12:21:40;99330.78;;;22.02;45.36
43312;BME280;30041;48.300;16.352;2022-11-20T12:24:44;99329.72;;;22.03;45.54
43312;BME280;30041;48.300;16.352;2022-11-20T12:30:13;99331.09;;;22.06;45.48
43312;BME280;30041;48.300;16.352;2022-11-20T12:40:30;99317.06;;;22.04;45.70
43312;BME280;30041;48.300;16.352;2022-11-20T12:45:38;99311.28;;;21.95;45.59
43312;BME280;30041;48.300;16.352;2022-11-20T12:53:33;99299.97;;;21.98;45.37
43312;BME280;30041;48.300;16.352;2022-11-20T13:02:18;99302.84;;;22.30;44.69
43312;BME280;30041;48.300;16.352;2022-11-20T13:07:33;99291.13;;;22.42;44.73
43312;BME280;30041;48.300;16.352;2022-11-20T13:10:00;99291.66;;;22.44;44.59
43312;BME280;30041;48.300;16.352;2022-11-20T13:12:35;99286.44;;;22.37;44.88
43312;BME280;30041;48.300;16.352;2022-11-20T13:15:17;99288.53;;;22.30;44.87
43312;BME280;30041;48.300;16.352;2022-11-20T13:18:10;99303.88;;;22.24;45.33
43312;BME280;30041;48.300;16.352;2022-11-20T13:20:42;99295.34;;;22.15;45.32
43312;BME280;30041;48.300;16.352;2022-11-20T13:23:07;99289.38;;;22.13;45.49
43312;BME280;30041;48.300;16.352;2022-11-20T13:25:35;99284.75;;;22.09;45.46
43312;BME280;30041;48.300;16.352;2022-11-20T13:30:35;99280.84;;;22.00;45.62
43312;BME280;30041;48.300;16.352;2022-11-20T13:33:08;99285.41;;;21.99;45.69
43312;BME280;30041;48.300;16.352;2022-11-20T13:38:00;99285.28;;;21.89;43.92
43312;BME280;30041;48.300;16.352;2022-11-20T13:40:26;99282.13;;;21.75;44.21
43312;BME280;30041;48.300;16.352;2022-11-20T13:43:00;99281.09;;;21.81;44.70
43312;BME280;30041;48.300;16.352;2022-11-20T13:45:29;99268.28;;;21.88;44.85
43312;BME280;30041;48.300;16.352;2022-11-20T13:47:56;99274.72;;;21.87;44.74
43312;BME280;30041;48.300;16.352;2022-11-20T13:50:29;99270.97;;;21.88;44.79
43312;BME280;30041;48.300;16.352;2022-11-20T13:53:22;99273.41;;;21.90;45.01
43312;BME280;30041;48.300;16.352;2022-11-20T13:58:36;99256.41;;;21.89;45.13
43312;BME280;30041;48.300;16.352;2022-11-20T14:03:33;99260.75;;;21.90;45.51
43312;BME280;30041;48.300;16.352;2022-11-20T14:06:01;99252.66;;;21.90;45.45
43312;BME280;30041;48.300;16.352;2022-11-20T14:08:30;99254.78;;;21.88;45.47
43312;BME280;30041;48.300;16.352;2022-11-20T14:11:04;99256.41;;;21.89;45.77
43312;BME280;30041;48.300;16.352;2022-11-20T14:13:30;99257.22;;;21.90;45.47
43312;BME280;30041;48.300;16.352;2022-11-20T14:15:58;99254.78;;;21.88;45.62
43312;BME280;30041;48.300;16.352;2022-11-20T14:18:24;99261.00;;;21.89;45.75
43312;BME280;30041;48.300;16.352;2022-11-20T14:20:50;99263.69;;;21.89;45.81
43312;BME280;30041;48.300;16.352;2022-11-20T14:23:25;99252.34;;;21.87;45.89
43312;BME280;30041;48.300;16.352;2022-11-20T14:25:51;99250.44;;;21.87;45.83
43312;BME280;30041;48.300;16.352;2022-11-20T14:28:21;99240.22;;;21.89;45.84
43312;BME280;30041;48.300;16.352;2022-11-20T14:30:49;99232.19;;;21.94;45.73
43312;BME280;30041;48.300;16.352;2022-11-20T14:33:15;99241.69;;;21.97;45.93
43312;BME280;30041;48.300;16.352;2022-11-20T14:35:43;99244.13;;;21.98;45.94